createdAt,value
2019-01-19T00:00:06.683Z,1.31
2019-01-19T00:01:06.837Z,1.30
2019-01-19T00:02:07.094Z,1.25
2019-01-19T00:03:07.163Z,1.24
2019-01-19T00:04:07.310Z,1.32
2019-01-19T00:05:10.543Z,1.18
2019-01-19T00:06:07.655Z,1.28
2019-01-19T00:07:07.815Z,1.30
2019-01-19T00:08:07.984Z,1.31
2019-01-19T00:09:08.135Z,1.21
2019-01-19T00:10:08.363Z,1.21
2019-01-19T00:11:08.455Z,1.25
2019-01-19T00:12:08.608Z,1.20
2019-01-19T00:13:08.797Z,1.20
2019-01-19T00:14:08.945Z,1.24
2019-01-19T00:15:09.104Z,1.30
2019-01-19T00:16:09.298Z,1.20
2019-01-19T00:17:09.424Z,1.21
2019-01-19T00:18:09.644Z,1.21
2019-01-19T00:19:09.728Z,1.20
2019-01-19T00:20:09.894Z,1.28
2019-01-19T00:21:10.074Z,1.10
2019-01-19T00:22:10.211Z,1.10
2019-01-19T00:23:10.390Z,1.20
2019-01-19T00:24:10.521Z,1.12
2019-01-19T00:25:10.708Z,1.10
2019-01-19T00:26:10.919Z,1.16
2019-01-19T00:27:11.065Z,1.21
2019-01-19T00:28:11.194Z,1.06
2019-01-19T00:29:11.321Z,1.22
2019-01-19T00:30:11.515Z,1.16
2019-01-19T00:31:11.674Z,1.07
2019-01-19T00:32:11.835Z,1.07
2019-01-19T00:33:12.000Z,1.04
2019-01-19T00:34:12.149Z,1.00
2019-01-19T00:35:17.835Z,1.03
2019-01-19T00:36:13.474Z,0.94
2019-01-19T00:37:12.641Z,0.95
2019-01-19T00:38:12.791Z,1.03
2019-01-19T00:39:12.922Z,1.00
2019-01-19T00:40:13.081Z,1.03
2019-01-19T00:41:13.277Z,1.02
2019-01-19T00:42:13.677Z,1.06
2019-01-19T00:43:13.680Z,1.06
2019-01-19T00:44:13.736Z,1.06
2019-01-19T00:45:13.874Z,1.00
2019-01-19T00:46:14.084Z,0.95
2019-01-19T00:47:14.227Z,0.99
2019-01-19T00:48:14.396Z,0.91
2019-01-19T00:49:14.531Z,0.95
2019-01-19T00:50:14.700Z,0.91
2019-01-19T00:51:14.921Z,0.95
2019-01-19T00:52:15.020Z,0.99
2019-01-19T00:53:15.186Z,1.03
2019-01-19T00:54:15.332Z,0.92
2019-01-19T00:55:15.491Z,0.94
2019-01-19T00:56:15.671Z,0.94
2019-01-19T00:57:15.801Z,0.96
2019-01-19T00:58:15.988Z,1.06
2019-01-19T00:59:16.208Z,1.00
2019-01-19T01:00:16.313Z,1.02
2019-01-19T01:01:16.502Z,1.02
2019-01-19T01:02:16.625Z,1.03
2019-01-19T01:03:16.783Z,1.07
2019-01-19T01:04:16.959Z,0.99
2019-01-19T01:05:17.125Z,0.99
2019-01-19T01:06:17.326Z,1.00
2019-01-19T01:07:17.451Z,0.91
2019-01-19T01:08:17.682Z,0.96
2019-01-19T01:09:17.790Z,0.92
2019-01-19T01:10:17.950Z,0.94
2019-01-19T01:11:18.321Z,0.95
2019-01-19T01:12:18.273Z,0.95
2019-01-19T01:13:18.419Z,0.91
2019-01-19T01:14:18.596Z,0.92
2019-01-19T01:15:18.795Z,0.91
2019-01-19T01:16:19.107Z,0.94
2019-01-19T01:17:19.099Z,0.94
2019-01-19T01:18:19.255Z,0.88
2019-01-19T01:19:19.433Z,0.88
2019-01-19T01:20:19.585Z,0.94
2019-01-19T01:21:19.773Z,0.94
2019-01-19T01:22:19.920Z,0.99
2019-01-19T01:23:20.071Z,0.96
2019-01-19T01:24:20.266Z,0.89
2019-01-19T01:25:20.372Z,0.91
2019-01-19T01:26:20.556Z,0.96
2019-01-19T01:27:20.711Z,0.96
2019-01-19T01:28:20.860Z,0.94
2019-01-19T01:29:21.037Z,0.95
2019-01-19T01:30:21.164Z,0.92
2019-01-19T01:31:21.360Z,0.95
2019-01-19T01:32:21.588Z,0.91
2019-01-19T01:33:21.653Z,1.03
2019-01-19T01:34:21.838Z,0.94
2019-01-19T01:35:21.979Z,1.02
2019-01-19T01:36:22.151Z,0.95
2019-01-19T01:37:22.332Z,1.02
2019-01-19T01:38:22.472Z,1.00
2019-01-19T01:39:22.653Z,0.96
2019-01-19T01:40:22.811Z,0.92
2019-01-19T01:41:23.015Z,1.00
2019-01-19T01:42:23.133Z,0.96
2019-01-19T01:43:23.275Z,1.06
2019-01-19T01:44:23.456Z,1.03
2019-01-19T01:45:23.593Z,1.03
2019-01-19T01:46:23.773Z,1.13
2019-01-19T01:47:23.918Z,1.12
2019-01-19T01:48:24.086Z,1.06
2019-01-19T01:49:24.376Z,1.03
2019-01-19T01:50:24.414Z,1.10
2019-01-19T01:51:24.603Z,1.07
2019-01-19T01:52:24.724Z,1.12
2019-01-19T01:53:24.893Z,1.12
2019-01-19T01:54:25.076Z,1.09
2019-01-19T01:55:25.283Z,1.10
2019-01-19T01:56:25.405Z,1.16
2019-01-19T01:57:25.680Z,1.18
2019-01-19T01:58:25.701Z,1.02
2019-01-19T01:59:25.868Z,1.12
2019-01-19T02:00:26.019Z,1.13
2019-01-19T02:01:26.196Z,1.12
2019-01-19T02:02:26.368Z,1.20
2019-01-19T02:03:26.484Z,1.16
2019-01-19T02:04:26.682Z,1.10
2019-01-19T02:05:26.892Z,1.10
2019-01-19T02:06:26.997Z,1.13
2019-01-19T02:07:27.158Z,1.22
2019-01-19T02:08:27.310Z,1.16
2019-01-19T02:09:27.473Z,1.14
2019-01-19T02:10:27.626Z,1.12
2019-01-19T02:11:27.807Z,1.13
2019-01-19T02:12:27.981Z,1.10
2019-01-19T02:13:28.156Z,1.09
2019-01-19T02:14:28.298Z,1.22
2019-01-19T02:15:28.452Z,1.09
2019-01-19T02:16:28.627Z,1.14
2019-01-19T02:17:28.819Z,1.18
2019-01-19T02:18:28.972Z,1.13
2019-01-19T02:19:29.147Z,1.06
2019-01-19T02:20:29.287Z,1.10
2019-01-19T02:21:29.450Z,1.10
2019-01-19T02:22:29.986Z,1.09
2019-01-19T02:23:29.806Z,1.06
2019-01-19T02:24:29.970Z,1.06
2019-01-19T02:25:30.092Z,1.14
2019-01-19T02:26:30.255Z,1.10
2019-01-19T02:27:30.448Z,1.13
2019-01-19T02:28:30.594Z,1.12
2019-01-19T02:29:30.764Z,1.04
2019-01-19T02:30:31.023Z,1.10
2019-01-19T02:31:31.070Z,1.10
2019-01-19T02:32:31.294Z,1.13
2019-01-19T02:33:31.428Z,1.10
2019-01-19T02:34:31.587Z,1.10
2019-01-19T02:35:31.725Z,1.13
2019-01-19T02:36:31.878Z,1.04
2019-01-19T02:37:32.056Z,0.94
2019-01-19T02:38:32.292Z,0.96
2019-01-19T02:39:32.383Z,0.94
2019-01-19T02:40:32.525Z,1.10
2019-01-19T02:41:32.686Z,1.02
2019-01-19T02:42:32.845Z,1.04
2019-01-19T02:43:33.013Z,1.03
2019-01-19T02:44:33.197Z,0.94
2019-01-19T02:45:33.346Z,0.94
2019-01-19T02:46:33.533Z,0.84
2019-01-19T02:47:33.646Z,0.92
2019-01-19T02:48:33.807Z,0.85
2019-01-19T02:49:33.992Z,0.76
2019-01-19T02:50:34.139Z,0.77
2019-01-19T02:51:34.291Z,0.82
2019-01-19T02:52:34.479Z,0.77
2019-01-19T02:53:34.762Z,0.78
2019-01-19T02:54:34.830Z,0.81
2019-01-19T02:55:34.989Z,0.70
2019-01-19T02:56:35.117Z,0.73
2019-01-19T02:57:35.314Z,0.73
2019-01-19T02:58:35.445Z,0.73
2019-01-19T02:59:35.618Z,0.67
2019-01-19T03:00:35.761Z,0.71
2019-01-19T03:01:35.932Z,0.74
2019-01-19T03:02:36.107Z,0.73
2019-01-19T03:03:36.411Z,0.74
2019-01-19T03:04:36.404Z,0.78
2019-01-19T03:05:36.555Z,0.77
2019-01-19T03:06:36.717Z,0.74
2019-01-19T03:07:36.897Z,0.71
2019-01-19T03:08:37.054Z,0.73
2019-01-19T03:09:37.236Z,0.71
2019-01-19T03:10:37.356Z,0.77
2019-01-19T03:11:37.599Z,0.74
2019-01-19T03:12:37.707Z,0.68
2019-01-19T03:13:37.856Z,0.74
2019-01-19T03:14:38.025Z,0.70
2019-01-19T03:15:38.161Z,0.63
2019-01-19T03:16:38.321Z,0.63
2019-01-19T03:17:38.516Z,0.63
2019-01-19T03:18:38.668Z,0.64
2019-01-19T03:19:38.862Z,0.61
2019-01-19T03:20:38.986Z,0.56
2019-01-19T03:21:39.139Z,0.61
2019-01-19T03:22:39.326Z,0.52
2019-01-19T03:23:39.479Z,0.55
2019-01-19T03:24:39.658Z,0.51
2019-01-19T03:25:39.819Z,0.51
2019-01-19T03:26:39.982Z,0.45
2019-01-19T03:27:40.204Z,0.45
2019-01-19T03:28:40.333Z,0.39
2019-01-19T03:29:40.480Z,0.47
2019-01-19T03:30:40.651Z,0.36
2019-01-19T03:31:40.795Z,0.39
2019-01-19T03:32:40.977Z,0.42
2019-01-19T03:33:41.098Z,0.31
2019-01-19T03:34:41.290Z,0.42
2019-01-19T03:35:41.468Z,0.33
2019-01-19T03:36:41.720Z,0.37
2019-01-19T03:37:41.775Z,0.34
2019-01-19T03:38:41.905Z,0.36
2019-01-19T03:39:42.091Z,0.37
2019-01-19T03:40:42.255Z,0.44
2019-01-19T03:41:42.400Z,0.34
2019-01-19T03:42:42.564Z,0.36
2019-01-19T03:43:42.717Z,0.36
2019-01-19T03:44:42.971Z,0.26
2019-01-19T03:45:43.073Z,0.23
2019-01-19T03:46:43.204Z,0.18
2019-01-19T03:47:43.375Z,0.27
2019-01-19T03:48:43.515Z,0.20
2019-01-19T03:49:43.671Z,0.26
2019-01-19T03:50:43.884Z,0.23
2019-01-19T03:51:44.010Z,0.23
2019-01-19T03:52:44.253Z,0.16
2019-01-19T03:53:44.312Z,0.19
2019-01-19T03:54:44.465Z,0.20
2019-01-19T03:55:44.676Z,0.18
2019-01-19T03:56:44.818Z,0.23
2019-01-19T03:57:44.986Z,0.18
2019-01-19T03:58:45.368Z,0.24
2019-01-19T03:59:45.307Z,0.18
2019-01-19T04:00:45.509Z,0.23
2019-01-19T04:01:45.598Z,0.13
2019-01-19T04:02:45.795Z,0.24
2019-01-19T04:03:45.955Z,0.19
2019-01-19T04:04:46.100Z,0.09
2019-01-19T04:05:46.337Z,0.05
2019-01-19T04:06:46.408Z,0.00
2019-01-19T04:07:46.608Z,0.12
2019-01-19T04:08:46.783Z,0.05
2019-01-19T04:09:47.538Z,-0.10
2019-01-19T04:10:47.407Z,0.00
2019-01-19T04:11:47.225Z,-0.05
2019-01-19T04:12:47.405Z,-0.15
2019-01-19T04:13:47.570Z,-0.03
2019-01-19T04:14:47.734Z,-0.09
2019-01-19T04:15:47.919Z,0.01
2019-01-19T04:16:48.066Z,0.08
2019-01-19T04:17:48.297Z,-0.02
2019-01-19T04:18:48.370Z,-0.02
2019-01-19T04:19:48.532Z,-0.07
2019-01-19T04:20:48.709Z,0.05
2019-01-19T04:21:48.867Z,0.13
2019-01-19T04:22:49.012Z,0.16
2019-01-19T04:23:49.192Z,0.09
2019-01-19T04:24:49.380Z,0.09
2019-01-19T04:25:49.627Z,-0.02
2019-01-19T04:26:49.693Z,0.08
2019-01-19T04:27:49.835Z,0.06
2019-01-19T04:28:50.028Z,0.02
2019-01-19T04:29:50.192Z,0.01
2019-01-19T04:30:50.381Z,-0.05
2019-01-19T04:31:50.543Z,-0.03
2019-01-19T04:32:50.725Z,-0.03
2019-01-19T04:33:50.881Z,-0.03
2019-01-19T04:34:50.987Z,0.09
2019-01-19T04:35:51.172Z,0.00
2019-01-19T04:36:51.331Z,-0.07
2019-01-19T04:37:51.461Z,-0.02
2019-01-19T04:38:51.648Z,-0.02
2019-01-19T04:39:51.779Z,0.11
2019-01-19T04:40:51.990Z,0.06
2019-01-19T04:41:52.169Z,0.15
2019-01-19T04:42:52.441Z,0.12
2019-01-19T04:43:52.467Z,0.16
2019-01-19T04:44:52.590Z,0.15
2019-01-19T04:45:52.786Z,0.15
2019-01-19T04:46:52.956Z,0.15
2019-01-19T04:47:53.105Z,0.27
2019-01-19T04:48:53.281Z,0.20
2019-01-19T04:49:53.446Z,0.33
2019-01-19T04:50:53.690Z,0.26
2019-01-19T04:51:53.817Z,0.27
2019-01-19T04:52:53.909Z,0.24
2019-01-19T04:53:55.606Z,0.30
2019-01-19T04:54:54.232Z,0.30
2019-01-19T04:55:54.393Z,0.23
2019-01-19T04:56:54.576Z,0.24
2019-01-19T04:57:54.723Z,0.20
2019-01-19T04:58:55.041Z,0.20
2019-01-19T04:59:55.045Z,0.19
2019-01-19T05:00:55.208Z,0.13
2019-01-19T05:01:55.391Z,0.02
2019-01-19T05:02:55.529Z,-0.05
2019-01-19T05:03:55.712Z,0.02
2019-01-19T05:04:55.851Z,-0.15
2019-01-19T05:05:56.026Z,-0.06
2019-01-19T05:06:56.244Z,-0.06
2019-01-19T05:07:57.037Z,-0.10
2019-01-19T05:08:56.501Z,-0.18
2019-01-19T05:09:56.644Z,-0.21
2019-01-19T05:10:57.133Z,-0.20
2019-01-19T05:11:56.977Z,-0.30
2019-01-19T05:12:57.122Z,-0.36
2019-01-19T05:13:57.304Z,-0.31
2019-01-19T05:14:57.513Z,-0.31
2019-01-19T05:15:57.606Z,-0.30
2019-01-19T05:16:57.764Z,-0.35
2019-01-19T05:17:57.933Z,-0.38
2019-01-19T05:18:58.092Z,-0.38
2019-01-19T05:19:58.252Z,-0.39
2019-01-19T05:20:58.428Z,-0.49
2019-01-19T05:21:58.576Z,-0.48
2019-01-19T05:22:58.772Z,-0.56
2019-01-19T05:23:58.993Z,-0.48
2019-01-19T05:24:59.058Z,-0.49
2019-01-19T05:25:59.234Z,-0.48
2019-01-19T05:26:59.378Z,-0.41
2019-01-19T05:27:59.547Z,-0.38
2019-01-19T05:28:59.720Z,-0.44
2019-01-19T05:29:59.846Z,-0.48
2019-01-19T05:31:00.039Z,-0.44
2019-01-19T05:32:00.312Z,-0.41
2019-01-19T05:33:00.351Z,-0.39
2019-01-19T05:34:00.522Z,-0.41
2019-01-19T05:35:00.686Z,-0.44
2019-01-19T05:36:00.877Z,-0.35
2019-01-19T05:37:01.046Z,-0.41
2019-01-19T05:38:01.946Z,-0.42
2019-01-19T05:39:01.368Z,-0.41
2019-01-19T05:40:01.601Z,-0.42
2019-01-19T05:41:01.660Z,-0.33
2019-01-19T05:42:01.857Z,-0.35
2019-01-19T05:43:01.994Z,-0.35
2019-01-19T05:44:02.163Z,-0.26
2019-01-19T05:45:02.313Z,-0.35
2019-01-19T05:46:02.468Z,-0.42
2019-01-19T05:47:02.647Z,-0.38
2019-01-19T05:48:02.857Z,-0.41
2019-01-19T05:49:02.980Z,-0.49
2019-01-19T05:50:03.120Z,-0.46
2019-01-19T05:51:03.283Z,-0.48
2019-01-19T05:52:03.439Z,-0.42
2019-01-19T05:53:03.614Z,-0.54
2019-01-19T05:54:03.767Z,-0.48
2019-01-19T05:55:03.918Z,-0.54
2019-01-19T05:56:04.118Z,-0.59
2019-01-19T05:57:04.317Z,-0.54
2019-01-19T05:58:04.467Z,-0.54
2019-01-19T05:59:04.618Z,-0.59
2019-01-19T06:00:04.778Z,-0.57
2019-01-19T06:01:04.940Z,-0.54
2019-01-19T06:02:05.119Z,-0.62
2019-01-19T06:03:05.275Z,-0.62
2019-01-19T06:04:05.424Z,-0.60
2019-01-19T06:05:05.690Z,-0.60
2019-01-19T06:06:05.741Z,-0.66
2019-01-19T06:07:05.920Z,-0.60
2019-01-19T06:08:06.065Z,-0.63
2019-01-19T06:09:06.238Z,-0.57
2019-01-19T06:10:06.383Z,-0.56
2019-01-19T06:11:06.559Z,-0.59
2019-01-19T06:12:06.727Z,-0.63
2019-01-19T06:13:07.001Z,-0.60
2019-01-19T06:14:07.033Z,-0.59
2019-01-19T06:15:07.187Z,-0.66
2019-01-19T06:16:07.354Z,-0.74
2019-01-19T06:17:07.520Z,-0.72
2019-01-19T06:18:07.668Z,-0.66
2019-01-19T06:19:07.840Z,-0.72
2019-01-19T06:20:07.991Z,-0.72
2019-01-19T06:21:08.190Z,-0.62
2019-01-19T06:22:08.317Z,-0.72
2019-01-19T06:23:08.461Z,-0.75
2019-01-19T06:24:08.660Z,-0.70
2019-01-19T06:25:08.769Z,-0.64
2019-01-19T06:26:08.961Z,-0.60
2019-01-19T06:27:09.120Z,-0.74
2019-01-19T06:28:09.263Z,-0.70
2019-01-19T06:29:09.465Z,-0.63
2019-01-19T06:30:09.548Z,-0.67
2019-01-19T06:31:09.756Z,-0.63
2019-01-19T06:32:09.924Z,-0.63
2019-01-19T06:33:10.082Z,-0.62
2019-01-19T06:34:10.235Z,-0.53
2019-01-19T06:35:10.418Z,-0.57
2019-01-19T06:36:10.589Z,-0.57
2019-01-19T06:37:10.758Z,-0.60
2019-01-19T06:38:11.004Z,-0.59
2019-01-19T06:39:11.097Z,-0.63
2019-01-19T06:40:11.277Z,-0.62
2019-01-19T06:41:11.417Z,-0.60
2019-01-19T06:42:11.613Z,-0.62
2019-01-19T06:43:11.776Z,-0.60
2019-01-19T06:44:11.950Z,-0.59
2019-01-19T06:45:12.114Z,-0.59
2019-01-19T06:46:12.392Z,-0.57
2019-01-19T06:47:12.438Z,-0.54
2019-01-19T06:48:12.596Z,-0.56
2019-01-19T06:49:12.760Z,-0.53
2019-01-19T06:50:12.940Z,-0.46
2019-01-19T06:51:13.107Z,-0.59
2019-01-19T06:52:13.255Z,-0.59
2019-01-19T06:53:13.400Z,-0.51
2019-01-19T06:54:13.655Z,-0.53
2019-01-19T06:55:13.742Z,-0.46
2019-01-19T06:56:13.902Z,-0.57
2019-01-19T06:57:14.059Z,-0.53
2019-01-19T06:58:14.198Z,-0.59
2019-01-19T06:59:17.516Z,-0.62
2019-01-19T07:00:14.551Z,-0.63
2019-01-19T07:01:14.709Z,-0.62
2019-01-19T07:02:14.927Z,-0.63
2019-01-19T07:03:15.000Z,-0.59
2019-01-19T07:04:15.153Z,-0.59
2019-01-19T07:05:15.340Z,-0.57
2019-01-19T07:06:15.503Z,-0.60
2019-01-19T07:07:15.672Z,-0.59
2019-01-19T07:08:15.807Z,-0.56
2019-01-19T07:09:15.971Z,-0.62
2019-01-19T07:10:16.167Z,-0.66
2019-01-19T07:11:16.388Z,-0.56
2019-01-19T07:12:16.483Z,-0.53
2019-01-19T07:13:16.627Z,-0.62
2019-01-19T07:14:16.786Z,-0.57
2019-01-19T07:15:17.175Z,-0.57
2019-01-19T07:16:17.124Z,-0.57
2019-01-19T07:17:17.301Z,-0.60
2019-01-19T07:18:17.478Z,-0.56
2019-01-19T07:19:17.746Z,-0.51
2019-01-19T07:20:17.775Z,-0.49
2019-01-19T07:21:17.941Z,-0.46
2019-01-19T07:22:18.120Z,-0.46
2019-01-19T07:23:18.259Z,-0.44
2019-01-19T07:24:18.419Z,-0.46
2019-01-19T07:25:18.592Z,-0.42
2019-01-19T07:26:18.745Z,-0.41
2019-01-19T07:27:19.042Z,-0.38
2019-01-19T07:28:19.071Z,-0.39
2019-01-19T07:29:19.231Z,-0.39
2019-01-19T07:30:19.413Z,-0.45
2019-01-19T07:31:19.551Z,-0.41
2019-01-19T07:32:19.714Z,-0.39
2019-01-19T07:33:19.900Z,-0.36
2019-01-19T07:34:20.062Z,-0.27
2019-01-19T07:35:20.284Z,-0.36
2019-01-19T07:36:20.361Z,-0.24
2019-01-19T07:37:20.512Z,-0.17
2019-01-19T07:38:20.701Z,-0.18
2019-01-19T07:39:20.905Z,-0.12
2019-01-19T07:40:21.055Z,-0.17
2019-01-19T07:41:21.202Z,-0.09
2019-01-19T07:42:21.356Z,-0.12
2019-01-19T07:43:21.551Z,-0.05
2019-01-19T07:44:21.708Z,-0.07
2019-01-19T07:45:21.873Z,-0.06
2019-01-19T07:46:22.021Z,-0.12
2019-01-19T07:47:22.180Z,-0.06
2019-01-19T07:48:22.359Z,-0.07
2019-01-19T07:49:22.507Z,-0.12
2019-01-19T07:50:22.683Z,-0.10
2019-01-19T07:51:22.907Z,-0.17
2019-01-19T07:52:23.105Z,-0.10
2019-01-19T07:53:23.188Z,-0.09
2019-01-19T07:54:23.316Z,-0.12
2019-01-19T07:55:23.508Z,-0.13
2019-01-19T07:56:24.846Z,-0.23
2019-01-19T07:57:30.964Z,-0.21
2019-01-19T07:58:24.997Z,-0.21
2019-01-19T07:59:24.138Z,-0.26
2019-01-19T08:00:24.468Z,-0.23
2019-01-19T08:01:24.457Z,-0.26
2019-01-19T08:02:24.632Z,-0.42
2019-01-19T08:03:24.801Z,-0.48
2019-01-19T08:04:24.952Z,-0.46
2019-01-19T08:05:25.120Z,-0.41
2019-01-19T08:06:25.259Z,-0.49
2019-01-19T08:07:25.452Z,-0.48
2019-01-19T08:08:26.884Z,-0.56
2019-01-19T08:09:25.745Z,-0.62
2019-01-19T08:10:25.928Z,-0.63
2019-01-19T08:11:26.054Z,-0.63
2019-01-19T08:12:26.240Z,-0.77
2019-01-19T08:13:26.409Z,-0.75
2019-01-19T08:14:26.555Z,-0.72
2019-01-19T08:15:26.745Z,-0.72
2019-01-19T08:16:27.106Z,-0.72
2019-01-19T08:17:26.931Z,-0.78
2019-01-19T08:18:27.125Z,-0.77
2019-01-19T08:19:27.312Z,-0.84
2019-01-19T08:20:27.427Z,-0.89
2019-01-19T08:21:27.575Z,-0.85
2019-01-19T08:22:27.720Z,-0.75
2019-01-19T08:23:27.910Z,-0.77
2019-01-19T08:24:28.095Z,-0.81
2019-01-19T08:25:28.331Z,-0.89
2019-01-19T08:26:28.419Z,-0.89
2019-01-19T08:27:28.581Z,-0.89
2019-01-19T08:28:28.771Z,-0.87
2019-01-19T08:29:28.915Z,-0.91
2019-01-19T08:30:29.114Z,-0.91
2019-01-19T08:31:29.236Z,-0.91
2019-01-19T08:32:29.428Z,-0.78
2019-01-19T08:33:29.681Z,-0.74
2019-01-19T08:34:29.716Z,-0.75
2019-01-19T08:35:29.891Z,-0.81
2019-01-19T08:36:30.036Z,-0.81
2019-01-19T08:37:30.186Z,-0.80
2019-01-19T08:38:30.352Z,-0.82
2019-01-19T08:39:30.513Z,-0.82
2019-01-19T08:40:30.689Z,-0.93
2019-01-19T08:41:30.944Z,-0.84
2019-01-19T08:42:30.978Z,-0.82
2019-01-19T08:43:31.171Z,-0.87
2019-01-19T08:44:31.341Z,-0.91
2019-01-19T08:45:31.494Z,-0.80
2019-01-19T08:46:31.670Z,-0.78
2019-01-19T08:47:31.837Z,-0.75
2019-01-19T08:48:32.009Z,-0.82
2019-01-19T08:49:32.169Z,-0.75
2019-01-19T08:50:32.298Z,-0.78
2019-01-19T08:51:32.489Z,-0.80
2019-01-19T08:52:32.636Z,-0.75
2019-01-19T08:53:32.821Z,-0.74
2019-01-19T08:54:33.184Z,-0.63
2019-01-19T08:55:33.120Z,-0.59
2019-01-19T08:56:33.288Z,-0.66
2019-01-19T08:57:33.517Z,-0.60
2019-01-19T08:58:33.600Z,-0.59
2019-01-19T08:59:33.760Z,-0.49
2019-01-19T09:00:33.904Z,-0.41
2019-01-19T09:01:34.095Z,-0.46
2019-01-19T09:02:34.258Z,-0.48
2019-01-19T09:03:34.442Z,-0.45
2019-01-19T09:04:34.559Z,-0.44
2019-01-19T09:05:34.765Z,-0.35
2019-01-19T09:06:34.995Z,-0.28
2019-01-19T09:07:35.053Z,-0.28
2019-01-19T09:08:35.247Z,-0.24
2019-01-19T09:09:35.374Z,-0.20
2019-01-19T09:10:35.535Z,-0.12
2019-01-19T09:11:35.696Z,-0.13
2019-01-19T09:12:35.875Z,-0.17
2019-01-19T09:13:36.055Z,-0.09
2019-01-19T09:14:36.314Z,-0.06
2019-01-19T09:15:36.347Z,0.01
2019-01-19T09:16:39.616Z,0.01
2019-01-19T09:17:37.684Z,-0.03
2019-01-19T09:18:36.859Z,0.00
2019-01-19T09:19:36.998Z,0.00
2019-01-19T09:20:37.159Z,0.12
2019-01-19T09:21:37.342Z,0.11
2019-01-19T09:22:37.521Z,0.16
2019-01-19T09:23:37.654Z,0.26
2019-01-19T09:24:37.793Z,0.27
2019-01-19T09:25:37.952Z,0.26
2019-01-19T09:26:38.145Z,0.31
2019-01-19T09:27:38.269Z,0.40
2019-01-19T09:28:38.453Z,0.27
2019-01-19T09:29:38.594Z,0.31
2019-01-19T09:30:38.792Z,0.34
2019-01-19T09:31:38.915Z,0.27
2019-01-19T09:32:39.063Z,0.40
2019-01-19T09:33:39.239Z,0.47
2019-01-19T09:34:39.381Z,0.51
2019-01-19T09:35:39.559Z,0.55
2019-01-19T09:36:39.743Z,0.59
2019-01-19T09:37:40.976Z,0.66
2019-01-19T09:38:40.100Z,0.67
2019-01-19T09:39:40.255Z,0.70
2019-01-19T09:40:40.372Z,0.81
2019-01-19T09:41:40.572Z,0.74
2019-01-19T09:42:40.691Z,0.77
2019-01-19T09:43:40.897Z,0.76
2019-01-19T09:44:41.037Z,0.88
2019-01-19T09:45:41.217Z,0.85
2019-01-19T09:46:41.372Z,0.85
2019-01-19T09:47:41.625Z,0.89
2019-01-19T09:48:41.674Z,0.99
2019-01-19T09:49:41.805Z,0.91
2019-01-19T09:50:41.982Z,1.00
2019-01-19T09:51:42.183Z,1.06
2019-01-19T09:52:42.318Z,0.99
2019-01-19T09:53:42.472Z,1.03
2019-01-19T09:54:42.651Z,1.24
2019-01-19T09:55:42.926Z,1.14
2019-01-19T09:56:42.994Z,1.14
2019-01-19T09:57:43.135Z,1.16
2019-01-19T09:58:43.294Z,1.14
2019-01-19T09:59:43.475Z,1.22
2019-01-19T10:00:45.771Z,1.22
2019-01-19T10:01:43.809Z,1.27
2019-01-19T10:02:43.949Z,1.21
2019-01-19T10:03:44.172Z,1.25
2019-01-19T10:04:44.263Z,1.24
2019-01-19T10:05:44.404Z,1.20
2019-01-19T10:06:44.576Z,1.31
2019-01-19T10:07:48.431Z,1.43
2019-01-19T10:08:44.913Z,1.43
2019-01-19T10:09:45.143Z,1.56
2019-01-19T10:10:45.222Z,1.42
2019-01-19T10:11:45.476Z,1.39
2019-01-19T10:12:45.514Z,1.39
2019-01-19T10:13:45.690Z,1.42
2019-01-19T10:14:45.873Z,1.42
2019-01-19T10:15:46.018Z,1.40
2019-01-19T10:16:46.208Z,1.36
2019-01-19T10:17:46.352Z,1.48
2019-01-19T10:18:46.488Z,1.49
2019-01-19T10:19:46.708Z,1.43
2019-01-19T10:20:46.889Z,1.49
2019-01-19T10:21:47.026Z,1.52
2019-01-19T10:22:47.143Z,1.49
2019-01-19T10:23:47.334Z,1.50
2019-01-19T10:24:47.503Z,1.57
2019-01-19T10:25:47.629Z,1.53
2019-01-19T10:26:47.807Z,1.68
2019-01-19T10:27:47.957Z,1.74
2019-01-19T10:28:48.232Z,1.76
2019-01-19T10:29:48.284Z,1.84
2019-01-19T10:30:48.428Z,1.81
2019-01-19T10:31:48.614Z,1.75
2019-01-19T10:32:48.993Z,1.79
2019-01-19T10:33:48.910Z,1.82
2019-01-19T10:34:49.071Z,1.86
2019-01-19T10:35:49.238Z,1.89
2019-01-19T10:36:49.505Z,2.00
2019-01-19T10:37:55.743Z,2.05
2019-01-19T10:38:50.710Z,2.08
2019-01-19T10:39:49.870Z,2.08
2019-01-19T10:40:50.033Z,2.07
2019-01-19T10:41:50.223Z,2.03
2019-01-19T10:42:50.353Z,2.00
2019-01-19T10:43:50.517Z,2.14
2019-01-19T10:44:50.740Z,2.19
2019-01-19T10:45:50.800Z,2.21
2019-01-19T10:46:51.007Z,2.15
2019-01-19T10:47:51.146Z,2.19
2019-01-19T10:48:51.303Z,2.10
2019-01-19T10:49:51.477Z,2.23
2019-01-19T10:50:51.626Z,2.19
2019-01-19T10:51:51.777Z,2.30
2019-01-19T10:52:52.002Z,2.30
2019-01-19T10:53:52.121Z,2.40
2019-01-19T10:54:52.305Z,2.32
2019-01-19T10:55:53.199Z,2.34
2019-01-19T10:56:52.646Z,2.32
2019-01-19T10:57:52.771Z,2.40
2019-01-19T10:58:52.946Z,2.47
2019-01-19T10:59:53.166Z,2.46
2019-01-19T11:00:53.286Z,2.54
2019-01-19T11:01:53.467Z,2.55
2019-01-19T11:02:53.606Z,2.55
2019-01-19T11:03:53.780Z,2.54
2019-01-19T11:04:53.967Z,2.68
2019-01-19T11:05:54.102Z,2.62
2019-01-19T11:06:54.263Z,2.57
2019-01-19T11:07:54.455Z,2.65
2019-01-19T11:08:54.573Z,2.62
2019-01-19T11:09:54.902Z,2.61
2019-01-19T11:10:54.904Z,2.55
2019-01-19T11:11:55.064Z,2.64
2019-01-19T11:12:55.232Z,2.58
2019-01-19T11:13:55.545Z,2.69
2019-01-19T11:14:55.584Z,2.69
2019-01-19T11:15:55.717Z,2.72
2019-01-19T11:16:55.879Z,2.77
2019-01-19T11:17:56.129Z,2.68
2019-01-19T11:18:56.170Z,2.72
2019-01-19T11:19:56.366Z,2.69
2019-01-19T11:20:56.511Z,2.75
2019-01-19T11:21:56.670Z,2.85
2019-01-19T11:22:56.858Z,2.79
2019-01-19T11:23:56.994Z,2.77
2019-01-19T11:24:57.222Z,2.79
2019-01-19T11:25:57.352Z,2.85
2019-01-19T11:26:57.477Z,2.90
2019-01-19T11:27:57.641Z,2.98
2019-01-19T11:28:57.785Z,2.94
2019-01-19T11:29:57.960Z,2.97
2019-01-19T11:30:58.087Z,2.97
2019-01-19T11:31:58.276Z,3.05
2019-01-19T11:32:58.482Z,3.09
2019-01-19T11:33:58.650Z,3.11
2019-01-19T11:34:58.834Z,3.16
2019-01-19T11:35:58.970Z,3.12
2019-01-19T11:36:59.092Z,3.13
2019-01-19T11:37:59.292Z,3.18
2019-01-19T11:38:59.427Z,3.13
2019-01-19T11:39:59.607Z,3.19
2019-01-19T11:40:59.749Z,3.13
2019-01-19T11:41:59.914Z,3.18
2019-01-19T11:43:00.207Z,3.30
2019-01-19T11:44:00.250Z,3.31
2019-01-19T11:45:00.427Z,3.37
2019-01-19T11:46:00.570Z,3.34
2019-01-19T11:47:00.716Z,3.34
2019-01-19T11:48:00.916Z,3.19
2019-01-19T11:49:01.060Z,3.22
2019-01-19T11:50:01.240Z,3.24
2019-01-19T11:51:01.492Z,3.13
2019-01-19T11:52:01.533Z,3.11
2019-01-19T11:53:01.795Z,3.18
2019-01-19T11:54:01.867Z,3.12
2019-01-19T11:55:02.038Z,3.15
2019-01-19T11:56:02.190Z,3.16
2019-01-19T11:57:02.333Z,3.19
2019-01-19T11:58:02.517Z,3.19
2019-01-19T11:59:02.746Z,3.21
2019-01-19T12:00:02.875Z,3.21
2019-01-19T12:01:03.014Z,3.27
2019-01-19T12:02:03.181Z,3.18
2019-01-19T12:03:03.356Z,3.24
2019-01-19T12:04:03.485Z,3.21
2019-01-19T12:05:03.666Z,3.29
2019-01-19T12:06:03.846Z,3.31
2019-01-19T12:07:04.046Z,3.26
2019-01-19T12:08:04.170Z,3.34
2019-01-19T12:09:04.295Z,3.40
2019-01-19T12:10:04.475Z,3.33
2019-01-19T12:11:04.674Z,3.40
2019-01-19T12:12:04.849Z,3.40
2019-01-19T12:13:05.236Z,3.43
2019-01-19T12:14:05.141Z,3.43
2019-01-19T12:15:05.329Z,3.37
2019-01-19T12:16:05.556Z,3.40
2019-01-19T12:17:05.624Z,3.52
2019-01-19T12:18:05.814Z,3.50
2019-01-19T12:19:05.943Z,3.52
2019-01-19T12:20:06.107Z,3.55
2019-01-19T12:21:06.266Z,3.46
2019-01-19T12:22:06.434Z,3.41
2019-01-19T12:23:06.619Z,3.40
2019-01-19T12:24:06.887Z,3.52
2019-01-19T12:25:06.916Z,3.49
2019-01-19T12:26:07.072Z,3.49
2019-01-19T12:27:07.224Z,3.46
2019-01-19T12:28:07.432Z,3.53
2019-01-19T12:29:07.546Z,3.40
2019-01-19T12:30:07.703Z,3.43
2019-01-19T12:31:07.893Z,3.53
2019-01-19T12:32:08.132Z,3.49
2019-01-19T12:33:08.242Z,3.50
2019-01-19T12:34:08.345Z,3.45
2019-01-19T12:35:08.552Z,3.46
2019-01-19T12:36:08.685Z,3.40
2019-01-19T12:37:08.814Z,3.43
2019-01-19T12:38:09.001Z,3.43
2019-01-19T12:39:09.172Z,3.49
2019-01-19T12:40:09.391Z,3.48
2019-01-19T12:41:09.487Z,3.46
2019-01-19T12:42:09.639Z,3.45
2019-01-19T12:43:09.801Z,3.53
2019-01-19T12:44:09.960Z,3.55
2019-01-19T12:45:10.173Z,3.46
2019-01-19T12:46:10.315Z,3.52
2019-01-19T12:47:10.463Z,3.63
2019-01-19T12:48:11.749Z,3.64
2019-01-19T12:49:10.758Z,3.61
2019-01-19T12:50:10.996Z,3.66
2019-01-19T12:51:11.148Z,3.66
2019-01-19T12:52:11.273Z,3.61
2019-01-19T12:53:11.449Z,3.63
2019-01-19T12:54:11.585Z,3.59
2019-01-19T12:55:11.742Z,3.55
2019-01-19T12:56:12.017Z,3.61
2019-01-19T12:57:12.179Z,3.43
2019-01-19T12:58:12.247Z,3.41
2019-01-19T12:59:12.389Z,3.45
2019-01-19T13:00:12.544Z,3.45
2019-01-19T13:01:12.761Z,3.45
2019-01-19T13:02:12.880Z,3.46
2019-01-19T13:03:13.046Z,3.52
2019-01-19T13:04:13.204Z,3.43
2019-01-19T13:05:13.469Z,3.41
2019-01-19T13:06:13.586Z,3.45
2019-01-19T13:07:13.688Z,3.40
2019-01-19T13:08:13.847Z,3.36
2019-01-19T13:09:14.030Z,3.41
2019-01-19T13:10:14.179Z,3.45
2019-01-19T13:11:14.365Z,3.43